Historyczne dane pomiarowe

Dodano dane terminowe – wersja testowa.

Dane z okresu 1951-2019

Wersja bazy: 1.34 [2019-03-16, lista zmian], aktualizacja planowana na 2019-04-15

Dane meteo z obszaru Polski uzyskane na podstawie danych udostępnionych przez Instytut Meteorologii i Gospodarki Wodnej – Państwowy Instytut Badawczy.

 

Wybierz Datę:    

       

TemperaturaWilgotnośćWiatrCiśnienieOpadyŚniegCzas trwania zjawisk
 Stacja t tx tn tng RH VA  wxwx mslp ppp RRR   cm mm wxwxwxwxwxwxwx
1987-08-14 13.8 19.1 10.0 7.5 83.3- 8.0 3.0---- 7.7------------
1987-08-13 14.0 19.2 10.0 7.2 84.0- 7.7 1.7---- 0.0------------
1987-08-12 13.1 16.9 9.7 7.5 78.3- 4.3 3.0---- 0.0------------
1987-08-11 12.6 16.6 10.0 6.8 85.3- 7.3 2.0---- 1.4------------
1987-08-10 13.7 17.1 12.5 10.0 90.5- 6.3 2.7---- 2.1------------
1987-08-09 15.2 20.6 9.3 6.5 77.3- 7.0 2.3---- 14.8------------
1987-08-08 13.9 21.4 5.3 2.0 69.8- 4.3 3.0---- 0.0------------
1987-08-07 13.0 17.9 8.8 7.0 74.5- 2.7 3.0---- 0.0------------
1987-08-06 12.2 15.2 10.2 8.0 87.3- 8.0 3.0---- 8.2------------
1987-08-05 11.7 15.2 8.3 5.3 84.8- 7.0 3.3---- 0.3------------
1987-08-04 12.1 16.1 9.6 7.2 91.0- 6.3 2.0---- 1.1------------
1987-08-03 12.0 17.1 9.2 7.5 88.8- 7.7 1.7---- 10.1------------
1987-08-02 12.5 17.6 8.6 6.0 81.3- 5.0 4.3---- 4.7------------
1987-08-01 15.0 18.9 12.8 10.5 86.5- 6.3 3.0---- 3.7------------
1987-07-31 15.0 18.1 14.0 11.5 81.0- 6.3 3.0---- 0.0------------
1987-07-30 14.8 18.9 8.0 5.0 84.0- 7.7 2.0---- 6.5------------
1987-07-29 14.3 17.2 11.3 9.2 75.0- 5.0 2.3---- 0.0------------
1987-07-28 14.3 19.7 9.2 5.7 80.0- 6.7 2.0---- 1.3------------
1987-07-27 12.0 16.1 9.0 6.5 76.8- 7.7 4.0---- 0.7------------
1987-07-26 12.8 17.6 7.7 4.7 73.8- 2.0 3.0---- 0.0------------
1987-07-25 15.1 18.2 13.3 10.8 79.0- 7.3 1.3---- 0.3------------
1987-07-24 18.2 23.4 14.8 13.8 80.3- 4.3 3.0---- 1.4------------
1987-07-23 18.0 24.4 14.5 14.2 88.3- 7.7 2.3---- 0.6------------
1987-07-22 17.8 24.7 13.2 12.8 85.5- 6.3 1.3---- 0.0------------
1987-07-21 16.6 23.4 10.3 8.8 84.8- 4.3 2.3---- 0.0------------
1987-07-20 16.7 17.4 15.8 15.0 92.8- 8.0 1.0---- 12.9------------
1987-07-19 17.0 21.2 13.5 11.0 86.8- 8.0 3.0---- 12.2------------
1987-07-18 19.2 24.2 14.5 13.0 76.3- 7.3 3.3---- 0.0------------
1987-07-17 18.3 24.4 11.5 8.3 73.3- 5.0 4.0---- 0.0------------
1987-07-16 16.3 21.9 10.0 7.7 76.5- 5.0 2.7---- 0.0------------
1987-07-15 14.3 21.4 6.7 4.5 77.0- 3.3 2.7---- 0.0------------
1987-07-14 16.2 20.1 12.7 10.3 69.0- 1.3 3.0---- 0.0------------
1987-07-13 14.4 18.4 12.0 9.7 78.0- 4.7 3.3---- 0.6------------
1987-07-12 16.7 19.4 14.0 13.2 88.0- 6.7 3.0---- 6.4------------
1987-07-11 11.9 15.0 9.5 7.0 90.3- 8.0 1.7---- 3.3------------
1987-07-10 13.1 17.6 9.5 7.2 74.5- 4.0 3.7---- 1.8------------
1987-07-09 16.4 21.2 13.2 12.0 77.0- 7.0 2.3---- 1.7------------
1987-07-08 20.5 29.1 12.8 9.5 74.5- 6.0 2.0---- 6.2------------
1987-07-07 19.0 26.5 9.5 7.5 70.3- 2.3 2.3---- 0.0------------
1987-07-06 15.6 25.8 6.2 3.5 69.0- 0.0 2.3---- 0.0------------
1987-07-05 14.8 20.2 9.8 5.5 69.5- 0.0 3.3---- 0.0------------
1987-07-04 14.9 19.4 12.1 10.7 79.3- 7.7 2.0---- 0.0------------
1987-07-03 14.5 21.2 7.5 4.5 73.3- 2.0 2.3---- 0.2------------
1987-07-02 17.0 22.4 10.7 7.8 68.5- 3.3 2.3---- 0.0------------
1987-07-01 21.5 27.5 18.2 16.0 86.5- 7.3 2.3---- 0.3------------
1987-06-30 22.7 28.2 17.2 14.0 82.0- 6.7 2.0---- 0.0------------
1987-06-29 16.6 22.6 9.2 6.8 84.3- 6.7 2.3---- 0.0------------
1987-06-28 14.8 19.9 11.8 9.2 81.0- 5.7 2.7---- 1.3------------
1987-06-27 15.3 20.9 12.3 9.8 71.0- 6.3 2.7---- 1.1------------
1987-06-26 14.0 19.9 6.5 2.5 78.8- 5.7 2.3---- 0.0------------
1987-06-25 13.1 17.7 10.5 7.5 74.0- 6.7 2.3---- 0.3------------
1987-06-24 13.8 17.6 10.5 8.0 81.3- 7.3 2.3---- 0.4------------
1987-06-23 13.9 18.6 11.2 11.0 81.3- 8.0 2.0---- 3.2------------
1987-06-22 16.7 19.9 14.0 11.2 81.0- 7.0 1.7---- 0.0------------
1987-06-21 18.3 24.0 12.0 8.0 71.3- 4.7 1.3---- 9.2------------
1987-06-20 14.8 21.4 7.6 3.8 76.5- 5.7 2.3---- 0.0------------
1987-06-19 12.0 15.9 7.7 5.5 78.5- 7.7 3.7---- 0.0------------
1987-06-18 10.0 16.4 5.2 1.4 81.3- 7.0 2.7---- 0.9------------
1987-06-17 11.7 14.8 10.3 8.5 71.8- 5.7 3.7---- 0.0------------
1987-06-16 12.3 17.0 10.0 9.5 90.3- 8.0 2.0---- 9.3------------
433.7 ms

 

Źródłem pochodzenia danych jest Instytut Meteorologii i Gospodarki Wodnej – Państwowy Instytut Badawczy. Dane Instytutu Meteorologii i Gospodarki Wodnej – Państwowego Instytutu Badawczego zostały przetworzone.

Dane źródłowe można odnaleźć na stronie https://dane.imgw.pl